Time;durP1;ratioP1;P1;durP2;ratioP2;P2;SDS_P1;SDS_P2;PMS_P1;PMS_P2;Temp;Humidity;BMP_temperature;BMP_pressure;BME280_temperature;BME280_humidity;BME280_pressure;Samples;Min_cycle;Max_cycle;Signal;HPM_P1;HPM_P2
2022/02/05 00:01:40;;;;;;;14.48;5.53;;;;;;;1.36;86.66;99429.25;5015799;28;20391;-59
2022/02/05 00:04:10;;;;;;;14.98;5.35;;;;;;;1.44;86.20;99434.47;5015626;28;20371;-59
2022/02/05 00:06:40;;;;;;;7.75;4.20;;;;;;;1.35;86.71;99430.28;5015543;28;20446;-62
2022/02/05 00:11:57;;;;;;;14.73;4.68;;;;;;;1.26;87.50;99436.59;5015157;28;20443;-58
2022/02/05 00:43:15;;;;;;;15.18;4.43;;;;;;;1.26;86.95;99473.56;5014342;28;20038;-58
2022/02/05 00:45:45;;;;;;;15.57;4.80;;;;;;;1.18;87.87;99481.56;5014395;28;20475;-60
2022/02/05 00:48:12;;;;;;;16.90;4.68;;;;;;;1.26;87.65;99484.13;5014691;28;20041;-60
2022/02/05 00:50:39;;;;;;;11.55;4.28;;;;;;;1.27;87.42;99486.63;5014308;28;20407;-60
2022/02/05 00:53:12;;;;;;;11.13;4.90;;;;;;;1.17;87.23;99487.81;5014534;28;20474;-60
2022/02/05 00:55:42;;;;;;;8.93;4.75;;;;;;;1.08;87.94;99489.72;5013851;28;20467;-59
2022/02/05 00:58:08;;;;;;;9.13;3.97;;;;;;;1.08;88.63;99490.53;5014658;28;20372;-60
2022/02/05 01:00:35;;;;;;;9.13;4.35;;;;;;;1.02;88.73;99493.88;5013609;28;20070;-60
2022/02/05 01:03:01;;;;;;;6.07;3.55;;;;;;;1.12;88.86;99498.09;5014066;28;20440;-59
2022/02/05 01:05:27;;;;;;;11.05;4.10;;;;;;;1.07;89.09;99512.66;5014138;28;20032;-58
2022/02/05 01:07:59;;;;;;;6.90;3.38;;;;;;;1.32;87.89;99509.84;5014052;28;20040;-59
2022/02/05 01:10:25;;;;;;;11.75;4.28;;;;;;;1.20;87.81;99517.34;5014178;28;20403;-60
2022/02/05 01:12:56;;;;;;;8.55;3.83;;;;;;;1.15;88.40;99529.41;5014015;28;20463;-59
2022/02/05 01:15:26;;;;;;;8.15;4.05;;;;;;;1.12;88.48;99519.22;5012987;28;20407;-59
2022/02/05 01:17:59;;;;;;;11.70;4.28;;;;;;;1.14;88.97;99533.06;5013981;28;20390;-59
2022/02/05 01:23:13;;;;;;;7.38;3.70;;;;;;;1.10;88.94;99531.75;5013774;28;20374;-64
2022/02/05 01:25:45;;;;;;;10.02;4.53;;;;;;;1.28;88.36;99550.81;5013589;28;20448;-59
2022/02/05 01:28:16;;;;;;;10.30;4.18;;;;;;;1.21;88.12;99545.41;5013565;28;20383;-59
2022/02/05 01:30:47;;;;;;;9.55;4.25;;;;;;;1.15;88.33;99543.47;4996732;28;20051;-59
2022/02/05 01:35:55;;;;;;;8.35;4.20;;;;;;;1.11;88.53;99547.44;5013458;28;20030;-59
2022/02/05 01:52:07;;;;;;;10.13;3.80;;;;;;;1.06;87.87;99557.69;5013583;28;20367;-59
2022/02/05 01:57:19;;;;;;;8.57;4.05;;;;;;;0.97;88.29;99564.00;5012353;28;20452;-59
2022/02/05 02:04:41;;;;;;;10.93;4.32;;;;;;;0.95;88.37;99558.91;5013361;28;20397;-59
2022/02/05 02:05:26;;;;;;;9.10;4.82;;;;;;;1.02;87.84;99565.16;5018913;28;20095;-59
2022/02/05 02:28:43;;;;;;;8.98;4.10;;;;;;;1.15;86.61;99582.22;5019737;28;20468;-59
2022/02/05 02:31:15;;;;;;;12.82;4.28;;;;;;;1.06;87.34;99584.09;5020419;28;20340;-59
2022/02/05 02:33:46;;;;;;;8.80;3.80;;;;;;;1.01;87.02;99586.44;5019550;28;20348;-63
2022/02/05 02:36:22;;;;;;;9.77;3.95;;;;;;;1.04;89.15;99597.44;5019673;28;20361;-59
2022/02/05 02:38:52;;;;;;;8.77;3.72;;;;;;;1.10;87.29;99595.13;5019541;28;20492;-59
2022/02/05 02:41:29;;;;;;;17.85;4.72;;;;;;;1.08;87.52;99598.75;5018292;28;20345;-59
2022/02/05 02:43:55;;;;;;;9.15;4.35;;;;;;;1.14;87.04;99601.72;5019340;28;20399;-59
2022/02/05 02:46:21;;;;;;;11.82;3.78;;;;;;;1.07;87.08;99605.06;5019468;28;20052;-59
2022/02/05 02:48:48;;;;;;;11.25;4.78;;;;;;;1.02;87.37;99610.03;5019827;28;20107;-59
2022/02/05 02:56:44;;;;;;;11.90;4.35;;;;;;;0.72;88.87;99618.69;5020566;28;20041;-59
2022/02/05 02:59:47;;;;;;;13.13;5.18;;;;;;;0.38;90.19;99625.03;5019530;28;20372;-59
2022/02/05 03:02:00;;;;;;;14.93;3.80;;;;;;;0.21;91.49;99629.50;5019265;28;20052;-58
2022/02/05 03:04:26;;;;;;;16.05;6.45;;;;;;;0.11;92.16;99619.09;5018182;28;20486;-58
2022/02/05 03:06:55;;;;;;;10.55;5.63;;;;;;;0.20;92.17;99630.47;5019347;28;20030;-60
2022/02/05 03:09:22;;;;;;;14.85;5.82;;;;;;;0.12;92.95;99636.56;5019288;28;20462;-58
2022/02/05 03:11:48;;;;;;;12.80;4.93;;;;;;;0.12;92.73;99633.91;5019346;28;20451;-59
2022/02/05 03:14:14;;;;;;;12.10;4.03;;;;;;;0.13;92.85;99635.59;5019469;28;20034;-58
2022/02/05 03:16:46;;;;;;;15.90;7.03;;;;;;;0.02;93.46;99643.00;5015433;28;20093;-60
2022/02/05 03:19:15;;;;;;;14.65;7.10;;;;;;;0.04;93.75;99631.28;5015010;28;20041;-60
2022/02/05 03:21:41;;;;;;;20.75;7.50;;;;;;;0.14;93.39;99634.59;5016185;28;20383;-59
2022/02/05 03:24:06;;;;;;;18.63;7.38;;;;;;;0.04;93.98;99641.84;5016120;28;20056;-60
2022/02/05 03:26:34;;;;;;;11.48;6.05;;;;;;;0.02;94.10;99648.25;5015932;28;20032;-58
2022/02/05 03:29:00;;;;;;;10.93;5.68;;;;;;;0.04;93.73;99652.38;5016012;28;20448;-58
2022/02/05 03:31:26;;;;;;;17.60;7.20;;;;;;;-0.07;94.52;99655.34;5015807;28;20071;-58
2022/02/05 03:33:52;;;;;;;21.42;7.57;;;;;;;-0.14;94.69;99655.16;5015706;28;20037;-58
2022/02/05 03:36:18;;;;;;;16.50;6.63;;;;;;;-0.14;95.08;99657.00;5015731;28;20038;-58
2022/02/05 03:38:43;;;;;;;16.52;7.22;;;;;;;-0.18;95.38;99658.28;5015670;28;20033;-58
2022/02/05 03:41:09;;;;;;;16.25;7.10;;;;;;;-0.11;95.78;99657.47;5015639;28;20030;-58
2022/02/05 03:43:35;;;;;;;15.30;7.20;;;;;;;-0.29;95.99;99668.16;5015373;28;20050;-58
2022/02/05 03:46:01;;;;;;;17.67;7.93;;;;;;;-0.30;96.75;99666.50;5015558;28;20030;-58
2022/02/05 03:48:26;;;;;;;20.02;7.13;;;;;;;-0.34;96.21;99670.44;5015808;28;20032;-58
2022/02/05 03:50:52;;;;;;;21.85;8.52;;;;;;;-0.31;96.36;99664.03;5016274;28;20030;-58
2022/02/05 03:53:18;;;;;;;22.75;7.97;;;;;;;-0.36;96.47;99667.13;5015704;28;20026;-58
2022/02/05 03:55:46;;;;;;;23.00;8.77;;;;;;;-0.40;96.60;99673.75;5015454;28;20029;-60
2022/02/05 03:58:13;;;;;;;32.63;8.80;;;;;;;-0.32;96.90;99668.47;5015606;28;20411;-59
2022/02/05 04:00:38;;;;;;;19.52;6.28;;;;;;;-0.31;96.44;99670.13;5015305;28;20462;-58
2022/02/05 04:03:08;;;;;;;22.58;8.60;;;;;;;-0.34;96.51;99680.16;5013939;28;20029;-59
2022/02/05 04:05:34;;;;;;;19.38;7.50;;;;;;;-0.29;96.66;99689.22;5014303;28;20348;-59
2022/02/05 04:08:01;;;;;;;14.70;5.97;;;;;;;-0.19;96.42;99681.19;5015144;28;20443;-60
2022/02/05 04:10:32;;;;;;;17.88;6.88;;;;;;;-0.26;96.05;99678.34;5014620;28;20371;-59
2022/02/05 04:18:26;;;;;;;19.63;6.60;;;;;;;-0.25;96.22;99695.84;5015255;28;20076;-60
2022/02/05 04:20:52;;;;;;;9.68;4.90;;;;;;;-0.19;96.14;99689.09;5014955;28;20473;-60
2022/02/05 04:23:18;;;;;;;22.00;7.47;;;;;;;-0.19;95.85;99701.44;5014930;28;20022;-59
2022/02/05 04:25:45;;;;;;;21.90;6.63;;;;;;;-0.10;95.91;99697.81;4997772;28;20372;-58
2022/02/05 04:28:10;;;;;;;23.38;8.15;;;;;;;-0.08;95.32;99696.66;5013439;28;20459;-58
2022/02/05 04:30:36;;;;;;;19.80;7.60;;;;;;;0.10;94.46;99703.59;5013596;28;20017;-58
2022/02/05 04:33:02;;;;;;;15.68;5.57;;;;;;;0.08;94.17;99698.53;5014763;28;20056;-58
2022/02/05 04:35:28;;;;;;;16.48;6.40;;;;;;;0.18;93.69;99696.53;5014719;28;20029;-58
2022/02/05 04:37:57;;;;;;;10.75;5.25;;;;;;;0.29;93.47;99707.75;5014704;28;20500;-58
2022/02/05 04:40:28;;;;;;;13.70;6.78;;;;;;;0.25;92.89;99701.16;5013480;28;20359;-58
2022/02/05 04:45:39;;;;;;;22.30;6.95;;;;;;;0.40;92.90;99699.50;5014922;28;20032;-60
2022/02/05 04:48:40;;;;;;;20.25;6.10;;;;;;;0.40;93.01;99699.50;5014592;28;20367;-59
2022/02/05 04:53:53;;;;;;;15.13;6.22;;;;;;;0.08;93.51;99706.44;5013382;28;20355;-58
2022/02/05 04:56:35;;;;;;;14.43;6.57;;;;;;;-0.17;94.27;99704.75;5014347;28;20451;-58
2022/02/05 05:01:53;;;;;;;14.45;6.05;;;;;;;-0.36;95.67;99704.03;5014621;28;20475;-58
2022/02/05 05:04:24;;;;;;;13.85;5.28;;;;;;;-0.24;95.57;99705.38;5014318;28;20033;-58
2022/02/05 05:09:38;;;;;;;16.55;6.72;;;;;;;-0.24;95.55;99710.63;5014168;28;20493;-58
2022/02/05 05:20:22;;;;;;;18.85;6.97;;;;;;;-0.49;96.64;99724.72;5014116;28;20025;-60
2022/02/05 05:22:47;;;;;;;22.25;6.35;;;;;;;-0.37;96.05;99720.00;5013943;28;20022;-59
2022/02/05 05:25:13;;;;;;;10.45;4.75;;;;;;;-0.40;95.70;99722.94;5013911;28;20026;-60
2022/02/05 05:27:39;;;;;;;18.35;6.57;;;;;;;-0.47;96.16;99728.03;5014513;28;20037;-60
2022/02/05 05:30:06;;;;;;;19.65;6.75;;;;;;;-0.41;95.92;99726.56;5013798;28;20025;-58
2022/02/05 05:32:31;;;;;;;17.40;7.13;;;;;;;-0.31;95.20;99733.34;5013681;28;20030;-58
2022/02/05 05:34:57;;;;;;;15.75;6.82;;;;;;;-0.22;95.18;99742.09;5013658;28;20033;-58
2022/02/05 05:37:23;;;;;;;19.92;7.13;;;;;;;-0.01;94.22;99731.94;5013597;28;20026;-61
2022/02/05 05:39:50;;;;;;;16.42;6.93;;;;;;;0.10;93.44;99736.09;5012922;28;20026;-58
2022/02/05 05:42:22;;;;;;;10.45;5.10;;;;;;;0.17;93.20;99737.06;5013668;28;20415;-58
2022/02/05 05:45:22;;;;;;;11.73;5.70;;;;;;;0.23;92.74;99740.06;5012544;28;20498;-58
2022/02/05 05:53:04;;;;;;;12.07;5.07;;;;;;;0.33;91.64;99741.53;5013481;28;20029;-58
2022/02/05 05:55:30;;;;;;;19.48;6.40;;;;;;;0.20;91.57;99747.31;5013461;28;20504;-59
2022/02/05 05:57:56;;;;;;;15.02;6.03;;;;;;;0.23;91.63;99750.59;5012228;28;20032;-59
2022/02/05 06:00:22;;;;;;;11.98;4.20;;;;;;;0.27;91.66;99746.63;5013741;28;20454;-63
2022/02/05 06:02:48;;;;;;;14.32;6.63;;;;;;;0.18;91.67;99748.44;5013738;28;20025;-59
2022/02/05 06:05:13;;;;;;;20.05;6.72;;;;;;;0.11;91.97;99758.81;5013639;28;20029;-59
2022/02/05 06:07:39;;;;;;;21.27;7.68;;;;;;;0.16;91.93;99763.59;5013586;28;20026;-58
2022/02/05 06:10:06;;;;;;;12.52;3.65;;;;;;;0.19;91.57;99756.19;5013570;28;20022;-58
2022/02/05 06:12:31;;;;;;;16.13;6.43;;;;;;;0.21;90.93;99764.75;5013160;28;20412;-59
2022/02/05 06:14:59;;;;;;;15.85;5.10;;;;;;;0.32;90.61;99765.44;5013641;28;20018;-59
2022/02/05 06:17:26;;;;;;;17.45;5.97;;;;;;;0.19;90.71;99772.00;5013290;28;20419;-58
2022/02/05 06:19:52;;;;;;;12.13;6.20;;;;;;;0.15;91.13;99775.13;5013352;28;20372;-59
2022/02/05 06:22:18;;;;;;;14.27;6.72;;;;;;;0.08;91.49;99774.97;5012303;28;20397;-59
2022/02/05 06:24:44;;;;;;;22.42;6.55;;;;;;;0.20;90.50;99784.22;5013425;28;20448;-59
2022/02/05 06:27:09;;;;;;;14.80;6.35;;;;;;;0.14;90.79;99774.28;5013454;28;20029;-59
2022/02/05 06:29:35;;;;;;;14.40;6.50;;;;;;;0.11;91.03;99777.25;5013128;28;20050;-59
2022/02/05 06:32:01;;;;;;;14.30;6.20;;;;;;;0.07;91.42;99777.75;5013081;28;20018;-59
2022/02/05 06:34:26;;;;;;;18.02;6.30;;;;;;;0.03;91.36;99790.44;5013308;28;20136;-59
2022/02/05 06:36:52;;;;;;;12.57;6.45;;;;;;;-0.06;91.62;99799.28;5011808;28;20034;-59
2022/02/05 06:39:18;;;;;;;13.90;7.07;;;;;;;-0.09;91.78;99794.34;5011920;28;20372;-59
2022/02/05 06:41:44;;;;;;;15.93;6.60;;;;;;;-0.19;92.14;99804.19;5012985;28;20041;-59
2022/02/05 06:44:11;;;;;;;18.38;6.75;;;;;;;-0.17;92.48;99796.97;5012823;28;20062;-59
2022/02/05 06:46:37;;;;;;;10.30;5.32;;;;;;;-0.18;92.49;99800.56;5012993;28;20396;-59
2022/02/05 06:49:03;;;;;;;13.65;6.80;;;;;;;-0.20;92.62;99799.88;5012996;28;20466;-59
2022/02/05 06:51:29;;;;;;;19.27;6.53;;;;;;;-0.13;92.42;99814.09;5015993;28;20032;-59
2022/02/05 06:53:55;;;;;;;13.00;6.63;;;;;;;-0.08;92.52;99812.63;5016608;28;20452;-59
2022/02/05 06:56:21;;;;;;;14.25;7.32;;;;;;;-0.05;92.41;99817.59;5016540;28;20048;-59
2022/02/05 06:58:47;;;;;;;12.57;6.65;;;;;;;-0.09;92.95;99818.06;5016890;28;20028;-59
2022/02/05 07:01:13;;;;;;;18.77;7.25;;;;;;;-0.19;92.93;99828.72;5016526;28;20424;-58
2022/02/05 07:03:38;;;;;;;27.20;7.20;;;;;;;-0.15;93.40;99827.44;5016596;28;20036;-58
2022/02/05 07:06:05;;;;;;;15.50;7.82;;;;;;;-0.11;93.60;99827.94;5016440;28;20080;-58
2022/02/05 07:08:31;;;;;;;16.77;8.15;;;;;;;-0.23;93.44;99836.09;5016398;28;20353;-58
2022/02/05 07:10:57;;;;;;;18.45;9.05;;;;;;;-0.19;93.26;99835.81;5016608;28;20026;-58
2022/02/05 07:13:23;;;;;;;20.73;8.13;;;;;;;-0.16;93.51;99831.03;5016140;28;20034;-60
2022/02/05 07:16:06;;;;;;;16.38;7.63;;;;;;;-0.12;93.32;99836.84;5016177;28;20025;-60
2022/02/05 07:18:42;;;;;;;9.00;4.85;;;;;;;-0.04;93.91;99834.22;5016489;28;20417;-60
2022/02/05 07:21:15;;;;;;;15.15;6.35;;;;;;;-0.17;93.37;99834.66;5014912;28;20367;-59
2022/02/05 07:24:15;;;;;;;16.40;7.25;;;;;;;-0.14;93.37;99833.53;5016099;28;20470;-60
2022/02/05 07:29:25;;;;;;;15.82;6.85;;;;;;;-0.02;92.84;99840.16;5016129;28;20029;-60
2022/02/05 07:31:54;;;;;;;11.88;4.97;;;;;;;0.05;91.90;99842.97;5016165;28;20026;-60
2022/02/05 07:34:28;;;;;;;15.18;8.25;;;;;;;0.14;91.38;99844.66;5015896;28;20395;-60
2022/02/05 07:37:01;;;;;;;12.50;6.50;;;;;;;0.04;91.68;99842.16;5015976;28;20452;-59
2022/02/05 07:39:27;;;;;;;17.70;7.18;;;;;;;0.20;91.19;99852.75;5016098;28;20432;-60
2022/02/05 07:41:54;;;;;;;21.20;6.70;;;;;;;0.38;90.67;99843.91;5015705;28;20400;-60
2022/02/05 07:44:20;;;;;;;25.35;7.32;;;;;;;0.37;90.70;99836.97;5014484;28;20484;-60
2022/02/05 07:46:49;;;;;;;17.77;7.30;;;;;;;0.32;91.05;99840.06;5015661;28;20091;-60
2022/02/05 07:49:15;;;;;;;18.52;7.38;;;;;;;0.38;90.42;99836.00;5014476;28;20025;-60
2022/02/05 07:51:41;;;;;;;9.48;4.25;;;;;;;0.60;89.79;99847.72;4998259;28;20412;-60
2022/02/05 07:54:10;;;;;;;16.33;6.40;;;;;;;1.19;86.89;99847.59;5015758;28;20470;-60
2022/02/05 07:56:38;;;;;;;19.65;6.75;;;;;;;1.47;86.47;99848.88;5015482;28;20368;-60
2022/02/05 07:59:03;;;;;;;10.45;5.03;;;;;;;1.48;85.19;99847.88;5014489;28;20415;-60
2022/02/05 08:01:30;;;;;;;14.50;6.25;;;;;;;1.78;84.78;99850.78;5014739;28;20022;-60
2022/02/05 08:03:56;;;;;;;13.05;5.70;;;;;;;2.18;81.74;99848.13;5015403;28;20396;-60
2022/02/05 08:06:22;;;;;;;13.63;5.95;;;;;;;2.56;80.80;99846.44;5015392;28;20491;-60
2022/02/05 08:08:53;;;;;;;15.05;6.57;;;;;;;2.75;80.31;99847.81;5015504;28;20381;-60
2022/02/05 08:11:22;;;;;;;15.75;6.10;;;;;;;2.17;81.89;99852.59;5015246;28;20406;-61
2022/02/05 08:13:50;;;;;;;18.20;6.20;;;;;;;3.22;77.78;99852.88;5013903;28;20379;-60
2022/02/05 08:18:48;;;;;;;12.63;6.18;;;;;;;2.13;82.88;99856.59;5015202;28;20460;-60
2022/02/05 08:21:14;;;;;;;18.95;5.68;;;;;;;2.13;83.15;99864.53;5015054;28;20408;-60
2022/02/05 08:23:40;;;;;;;16.10;5.15;;;;;;;2.05;82.71;99869.84;5015055;28;20018;-60
2022/02/05 08:26:06;;;;;;;7.75;4.00;;;;;;;1.62;84.92;99864.88;5014979;28;20071;-60
2022/02/05 08:28:33;;;;;;;17.42;6.68;;;;;;;1.73;85.68;99868.97;5014931;28;20022;-60
2022/02/05 08:30:59;;;;;;;14.18;5.53;;;;;;;1.78;86.02;99868.44;4997815;28;20465;-60
2022/02/05 08:33:25;;;;;;;23.10;6.95;;;;;;;1.79;85.34;99880.66;5014494;28;20364;-60
2022/02/05 08:35:51;;;;;;;17.70;5.85;;;;;;;1.64;86.30;99872.59;5015127;28;20101;-60
2022/02/05 08:38:18;;;;;;;12.52;5.63;;;;;;;1.51;86.67;99873.94;5015102;28;20459;-59
2022/02/05 08:40:44;;;;;;;14.55;5.88;;;;;;;1.64;86.20;99877.88;5014878;28;20527;-59
2022/02/05 08:43:10;;;;;;;18.70;6.38;;;;;;;1.63;87.30;99885.00;5014619;28;20042;-60
2022/02/05 08:45:37;;;;;;;9.85;4.95;;;;;;;1.71;86.31;99886.78;5014851;28;20554;-60
2022/02/05 08:48:03;;;;;;;13.95;5.30;;;;;;;1.74;86.72;99894.38;5015066;28;20033;-60
2022/02/05 08:50:29;;;;;;;14.88;6.00;;;;;;;1.82;86.15;99890.88;4996934;28;20349;-60
2022/02/05 08:52:56;;;;;;;19.23;4.68;;;;;;;1.87;85.28;99892.06;5014429;28;20025;-59
2022/02/05 08:55:22;;;;;;;13.68;4.93;;;;;;;2.42;82.96;99892.16;5013627;28;20401;-60
2022/02/05 08:57:49;;;;;;;12.20;5.03;;;;;;;2.63;83.28;99883.63;5014552;28;20538;-60
2022/02/05 09:00:22;;;;;;;14.35;4.45;;;;;;;2.31;83.43;99891.53;5014594;28;20467;-61
2022/02/05 09:02:57;;;;;;;13.77;5.30;;;;;;;2.34;82.94;99901.75;5014866;28;20502;-59
2022/02/05 09:07:54;;;;;;;15.38;4.68;;;;;;;2.28;83.51;99896.34;5013221;28;20490;-60
2022/02/05 09:10:34;;;;;;;9.23;3.63;;;;;;;2.19;83.43;99908.78;5014339;28;20030;-58
2022/02/05 09:13:12;;;;;;;13.60;4.88;;;;;;;3.18;80.18;99909.84;5013783;28;20367;-59
2022/02/05 09:15:38;;;;;;;14.52;4.13;;;;;;;2.54;82.75;99906.63;4997963;28;20418;-61
2022/02/05 09:18:04;;;;;;;16.95;4.95;;;;;;;3.43;78.31;99909.66;5014079;28;20595;-59
2022/02/05 09:20:30;;;;;;;14.43;4.82;;;;;;;3.89;77.13;99912.19;5014109;28;20018;-59
2022/02/05 09:22:56;;;;;;;8.82;4.20;;;;;;;3.53;78.44;99918.19;5013942;28;20053;-59
2022/02/05 09:25:22;;;;;;;11.85;4.47;;;;;;;5.23;73.37;99920.69;5014186;28;20026;-59
2022/02/05 09:27:49;;;;;;;13.02;3.65;;;;;;;5.05;72.43;99923.81;5014196;28;20462;-59
2022/02/05 09:30:17;;;;;;;9.35;3.08;;;;;;;5.43;68.88;99922.72;5014100;28;20351;-59
2022/02/05 09:32:43;;;;;;;11.27;3.00;;;;;;;5.06;71.01;99928.09;5013750;28;20486;-60
2022/02/05 09:35:10;;;;;;;8.15;3.05;;;;;;;6.23;66.34;99927.56;5013745;28;20421;-59
2022/02/05 09:37:36;;;;;;;7.75;3.00;;;;;;;6.11;67.35;99926.47;5013799;28;20487;-59
2022/02/05 09:40:04;;;;;;;9.73;2.90;;;;;;;6.84;63.71;99926.81;5013805;28;20520;-59
2022/02/05 09:42:29;;;;;;;10.13;2.75;;;;;;;6.34;64.88;99920.88;5013664;28;20038;-59
2022/02/05 09:44:58;;;;;;;9.55;3.60;;;;;;;6.46;63.81;99913.13;5013270;28;20055;-59
2022/02/05 09:47:24;;;;;;;10.38;3.35;;;;;;;6.30;64.62;99913.50;5012478;28;20447;-59
2022/02/05 09:49:51;;;;;;;6.38;2.80;;;;;;;6.61;65.65;99916.47;5013666;28;20040;-59
2022/02/05 09:52:24;;;;;;;12.18;2.90;;;;;;;6.82;62.70;99909.38;5013592;28;20452;-60
2022/02/05 09:54:50;;;;;;;9.57;3.20;;;;;;;6.92;61.85;99909.81;5013490;28;20421;-59
2022/02/05 09:57:17;;;;;;;10.98;3.08;;;;;;;6.73;62.65;99910.56;5013570;28;20052;-59
2022/02/05 09:59:53;;;;;;;13.60;3.60;;;;;;;7.08;61.24;99914.75;5013637;28;20049;-59
2022/02/05 10:02:25;;;;;;;9.93;3.25;;;;;;;7.17;60.90;99917.22;5012336;28;20518;-59
2022/02/05 10:04:55;;;;;;;11.63;2.72;;;;;;;7.06;60.65;99916.81;5013456;28;20395;-59
2022/02/05 10:07:21;;;;;;;9.82;3.03;;;;;;;6.81;62.48;99913.84;5012219;28;20407;-59
2022/02/05 10:10:04;;;;;;;11.95;3.85;;;;;;;7.08;61.00;99912.06;5013440;28;20101;-59
2022/02/05 10:12:31;;;;;;;8.60;3.85;;;;;;;6.70;61.32;99909.13;5013323;28;20368;-59
2022/02/05 10:14:58;;;;;;;37.30;17.10;;;;;;;7.07;60.88;99913.13;5012124;28;20412;-60
2022/02/05 10:17:45;;;;;;;23.83;10.25;;;;;;;7.16;60.26;99910.25;5013517;28;20468;-59
2022/02/05 10:20:12;;;;;;;17.27;7.82;;;;;;;7.34;60.28;99913.16;5013370;28;20468;-59
2022/02/05 10:22:46;;;;;;;29.65;9.93;;;;;;;7.22;60.25;99926.25;5013653;28;20391;-59
2022/02/05 10:25:24;;;;;;;61.38;22.58;;;;;;;6.52;62.17;99930.19;5014408;28;20479;-59
2022/02/05 10:27:50;;;;;;;19.40;6.00;;;;;;;6.00;63.34;99938.50;5017558;28;20096;-59
2022/02/05 10:30:25;;;;;;;24.48;10.10;;;;;;;6.80;60.88;99933.53;5017281;28;20059;-59
2022/02/05 10:33:10;;;;;;;67.25;40.25;;;;;;;5.75;65.03;99942.59;5017374;28;20372;-59
2022/02/05 10:35:55;;;;;;;13.38;6.53;;;;;;;5.49;67.97;99951.19;5017808;28;20486;-59
2022/02/05 10:43:56;;;;;;;14.95;3.95;;;;;;;4.89;69.42;99942.63;5016908;28;20045;-60
2022/02/05 10:46:23;;;;;;;41.15;21.90;;;;;;;5.22;67.57;99947.44;5016820;28;20424;-59
2022/02/05 10:48:49;;;;;;;20.77;11.23;;;;;;;5.13;67.85;99952.09;4999343;28;20415;-59
2022/02/05 10:51:15;;;;;;;15.68;7.63;;;;;;;5.10;69.32;99947.97;5016724;28;20087;-59
2022/02/05 10:53:53;;;;;;;12.52;4.30;;;;;;;5.03;69.44;99939.09;5016458;28;20385;-59
2022/02/05 10:56:33;;;;;;;15.93;9.02;;;;;;;5.04;68.22;99953.22;5017113;28;20324;-59
2022/02/05 11:07:11;;;;;;;15.75;4.75;;;;;;;4.75;68.25;99970.88;5016679;28;20096;-58
2022/02/05 11:09:37;;;;;;;15.93;6.47;;;;;;;4.75;68.43;99973.53;5016567;28;20022;-59
2022/02/05 11:20:15;;;;;;;21.05;6.07;;;;;;;4.83;68.63;99970.75;5016368;28;20482;-60
2022/02/05 11:23:03;;;;;;;20.75;6.38;;;;;;;4.62;67.55;99962.72;5016309;28;20460;-60
2022/02/05 11:25:39;;;;;;;18.67;7.65;;;;;;;4.74;67.06;99953.28;5016531;28;20371;-60
2022/02/05 11:28:06;;;;;;;71.82;28.55;;;;;;;4.96;67.92;99962.94;5016075;28;20519;-60
2022/02/05 11:30:42;;;;;;;14.00;5.07;;;;;;;5.44;65.67;99942.94;5016441;28;20022;-59
2022/02/05 11:33:31;;;;;;;16.20;5.30;;;;;;;5.99;65.05;99946.66;5016254;28;20364;-59
2022/02/05 11:38:45;;;;;;;37.80;19.83;;;;;;;6.45;63.36;99948.78;5015546;28;20482;-60
2022/02/05 11:41:30;;;;;;;32.65;12.00;;;;;;;6.60;63.79;99932.66;5014757;28;20029;-60
2022/02/05 11:44:25;;;;;;;37.85;15.88;;;;;;;6.66;61.61;99935.38;5015660;28;20549;-59
2022/02/05 11:47:09;;;;;;;19.48;8.40;;;;;;;6.73;61.93;99942.53;5016207;28;20464;-60
2022/02/05 11:49:58;;;;;;;11.50;4.00;;;;;;;6.72;61.98;99935.59;5015740;28;20428;-60
2022/02/05 11:52:40;;;;;;;8.80;3.30;;;;;;;6.91;61.75;99924.97;5014996;28;20468;-60
2022/02/05 11:55:16;;;;;;;8.38;2.70;;;;;;;7.11;61.93;99935.69;5015652;28;20468;-60
2022/02/05 11:57:42;;;;;;;13.55;3.25;;;;;;;7.29;61.81;99936.94;5014551;28;20480;-59
2022/02/05 12:00:11;;;;;;;8.80;3.42;;;;;;;7.40;61.21;99933.66;5015616;28;20118;-59
2022/02/05 12:02:42;;;;;;;7.20;2.90;;;;;;;7.25;62.14;99935.69;5015510;28;20368;-58
2022/02/05 12:05:15;;;;;;;10.65;3.65;;;;;;;6.89;63.02;99935.03;5015478;28;20351;-59
2022/02/05 12:08:06;;;;;;;12.43;3.70;;;;;;;6.60;64.67;99941.47;5015756;28;20356;-59
2022/02/05 12:10:38;;;;;;;13.35;3.70;;;;;;;6.96;65.50;99940.34;5014622;28;20345;-58
2022/02/05 12:13:34;;;;;;;10.45;3.80;;;;;;;6.70;63.43;99933.91;5015222;28;20442;-61
2022/02/05 12:16:00;;;;;;;5.63;2.95;;;;;;;5.98;64.84;99924.56;5015589;28;20454;-60
2022/02/05 12:18:28;;;;;;;10.65;3.53;;;;;;;6.46;66.34;99926.44;5015230;28;20054;-59
2022/02/05 12:21:14;;;;;;;12.57;4.22;;;;;;;6.47;66.15;99917.47;5015431;28;20506;-60
2022/02/05 12:24:22;;;;;;;13.52;3.70;;;;;;;6.59;66.71;99923.84;5015243;28;20021;-59
2022/02/05 12:26:48;;;;;;;17.05;4.88;;;;;;;5.88;64.25;99917.94;5015535;28;20516;-60
2022/02/05 12:29:24;;;;;;;13.80;4.60;;;;;;;6.01;65.18;99921.50;5015087;28;20024;-60
2022/02/05 12:31:51;;;;;;;10.40;3.83;;;;;;;6.02;64.77;99919.69;5015397;28;20018;-59
2022/02/05 12:34:16;;;;;;;17.45;5.30;;;;;;;6.06;64.14;99910.28;5014864;28;20420;-60
2022/02/05 12:36:52;;;;;;;28.15;12.38;;;;;;;6.10;63.72;99910.72;5014870;28;20030;-59
2022/02/05 12:39:29;;;;;;;11.95;5.22;;;;;;;5.81;62.15;99908.03;5014326;28;20030;-59
2022/02/05 12:42:03;;;;;;;15.77;7.40;;;;;;;5.47;62.75;99902.72;5014654;28;20363;-60
2022/02/05 12:44:32;;;;;;;20.88;10.63;;;;;;;5.41;64.56;99902.44;5015583;28;20132;-60
2022/02/05 12:47:07;;;;;;;17.25;5.63;;;;;;;5.31;66.20;99896.63;5015657;28;20460;-60
2022/02/05 12:49:52;;;;;;;12.30;4.97;;;;;;;5.25;65.96;99899.25;5014109;28;20467;-61
2022/02/05 12:52:26;;;;;;;24.13;10.98;;;;;;;5.36;66.44;99883.59;5015653;28;20029;-60
2022/02/05 12:54:57;;;;;;;13.50;5.15;;;;;;;5.53;67.60;99888.63;5014056;28;20337;-60
2022/02/05 12:57:23;;;;;;;16.55;5.60;;;;;;;5.58;67.18;99889.69;5014401;28;20407;-61
2022/02/05 12:59:49;;;;;;;20.48;6.85;;;;;;;5.75;65.73;99890.22;5014494;28;20507;-60
2022/02/05 13:02:16;;;;;;;13.77;4.20;;;;;;;5.83;65.28;99894.56;5014781;28;20026;-60
2022/02/05 13:04:52;;;;;;;16.65;6.07;;;;;;;5.71;67.35;99886.28;5015026;28;20415;-59
2022/02/05 13:07:21;;;;;;;18.25;4.22;;;;;;;5.67;66.24;99879.75;5014261;28;20405;-60
2022/02/05 13:09:55;;;;;;;12.93;4.82;;;;;;;5.97;66.28;99882.22;5014782;28;20419;-60
2022/02/05 13:12:26;;;;;;;12.63;5.35;;;;;;;5.99;65.39;99896.09;5014451;28;20487;-60
2022/02/05 13:14:58;;;;;;;6.60;2.85;;;;;;;5.69;66.11;99888.34;5014302;28;20413;-59
2022/02/05 13:34:12;;;;;;;15.02;4.57;;;;;;;5.71;68.20;99875.66;5013923;28;20555;-59
2022/02/05 13:36:42;;;;;;;8.05;4.07;;;;;;;5.49;67.14;99871.41;5012046;28;20387;-60
2022/02/05 13:42:30;;;;;;;17.30;7.47;;;;;;;5.64;66.86;99861.50;5012305;28;20464;-60
2022/02/05 13:45:12;;;;;;;11.90;4.13;;;;;;;5.58;67.26;99859.63;5009691;28;20128;-59
2022/02/05 13:47:44;;;;;;;10.52;4.55;;;;;;;5.46;66.83;99851.34;5011719;28;20352;-59
2022/02/05 13:50:13;;;;;;;8.85;4.00;;;;;;;5.62;66.38;99866.19;5011873;28;20414;-59
2022/02/05 13:52:40;;;;;;;11.98;3.92;;;;;;;5.26;68.52;99851.19;5013657;28;20349;-60
2022/02/05 13:55:10;;;;;;;14.38;4.82;;;;;;;5.14;71.19;99847.41;5012648;28;20367;-60
2022/02/05 13:57:36;;;;;;;11.82;4.18;;;;;;;5.29;71.92;99861.47;5013621;28;20022;-59
2022/02/05 14:00:03;;;;;;;11.57;4.70;;;;;;;5.35;70.44;99854.56;5012070;28;20022;-60
2022/02/05 14:02:37;;;;;;;13.80;4.18;;;;;;;5.38;69.10;99841.69;5013832;28;20440;-59
2022/02/05 14:05:11;;;;;;;15.90;6.18;;;;;;;5.50;69.57;99849.16;5011592;28;20371;-60
2022/02/05 14:07:44;;;;;;;13.18;6.10;;;;;;;5.55;68.39;99868.00;5013598;28;20363;-60
2022/02/05 14:10:14;;;;;;;12.70;6.90;;;;;;;5.64;67.45;99864.16;5013142;28;20040;-60
2022/02/05 14:12:47;;;;;;;12.85;5.72;;;;;;;5.59;66.52;99862.09;5013668;28;20468;-60
2022/02/05 14:15:14;;;;;;;16.17;4.63;;;;;;;5.37;64.98;99869.28;5012213;28;20496;-59
2022/02/05 14:17:40;;;;;;;9.25;4.05;;;;;;;5.27;64.99;99868.00;5013505;28;20364;-59
2022/02/05 14:20:09;;;;;;;10.95;5.13;;;;;;;5.31;65.69;99870.06;4996698;28;20026;-59
2022/02/05 14:22:37;;;;;;;12.43;6.25;;;;;;;5.43;65.99;99872.19;5013445;28;20542;-59
2022/02/05 14:25:16;;;;;;;17.42;9.57;;;;;;;5.56;65.41;99867.78;5012209;28;20383;-59
2022/02/05 14:28:03;;;;;;;18.73;11.63;;;;;;;5.61;64.35;99868.03;5013752;28;20372;-59
2022/02/05 14:30:31;;;;;;;38.83;21.83;;;;;;;5.60;64.66;99870.88;5013403;28;20105;-59